• Join FlightAware (Why Join?)
  • Login
  • US Flag 
07:33PM EST


 

Airport Tracker/Info


-or-


 

Live Flight TrackerFlight Track Log ✈ N431EH ✈ 24-Apr-2014 ✈ KSLC - KSUN

Flight Track Log - Related Links

Times and Time Zones

All times are in EDT time to prevent confusion due to time zone crossing. See the N431EH flight status page for this flight to view local times or setup timezone preferences in your user account.

Time Position Orientation Groundspeed Altitude Reporting Facility
EDT Latitude Longitude Course Direction KTS MPH feet Rate Location/Type
08:58AM 40.7890 -111.9621 180° South 144 166 4,100  Level FlightAware ADS-B (KBTF)
08:59AM 40.7740 -111.9622 185° South 182 209 4,900 2,500 Climbing FlightAware ADS-B
08:59AM 40.7706 -111.9632 199° South 193 222 5,100 3,300 Climbing FlightAware ADS-B (KBTF)
08:59AM 40.7588 -111.9758 235° Southwest 220 253 6,000 3,429 Climbing FlightAware ADS-B
08:59AM 40.7565 -111.9817 248° West 230 265 6,300 3,429 Climbing FlightAware ADS-B (KBTF)
08:59AM 40.7522 -112.0053 263° West 254 292 7,200 3,000 Climbing FlightAware ADS-B
09:00AM 40.7493 -112.0529 277° West 260 299 8,600 2,914 Climbing FlightAware ADS-B
09:00AM 40.7504 -112.0597 285° West 262 302 8,900 3,176 Climbing FlightAware ADS-B (KBTF)
09:00AM 40.7542 -112.0722 299° West 263 303 9,500 3,545 Climbing FlightAware ADS-B
09:00AM 40.7624 -112.0901 304° West 255 293 10,200 4,091 Climbing FlightAware ADS-B
09:00AM 40.7719 -112.1039 320° Northwest 258 297 11,000 3,480 Climbing FlightAware ADS-B
09:01AM 40.8129 -112.1464 322° Northwest 315 362 13,100 3,103 Climbing FlightAware ADS-B (KBTF)
09:01AM 40.8359 -112.1705 321° Northwest 331 381 14,000 2,842 Climbing FlightAware ADS-B (KBTF)
09:02AM 40.8811 -112.2167 322° Northwest 354 407 15,800 3,043 Climbing FlightAware ADS-B
09:03AM 40.9200 -112.2562 323° Northwest 359 413 17,500 3,048 Climbing FlightAware ADS-B
09:03AM 40.9627 -112.2995 322° Northwest 364 419 19,000 2,912 Climbing FlightAware ADS-B
09:04AM 41.0078 -112.3452 322° Northwest 361 415 20,800 2,955 Climbing FlightAware ADS-B
09:04AM 41.0548 -112.3929 322° Northwest 361 415 22,300 3,048 Climbing FlightAware ADS-B
09:05AM 41.0983 -112.4371 323° Northwest 367 422 24,000 3,048 Climbing FlightAware ADS-B (KBTF)
09:05AM 41.1395 -112.4788 323° Northwest 371 427 25,500 3,000 Climbing FlightAware ADS-B
09:05AM 41.1531 -112.4926 323° Northwest 372 428 26,000 2,930 Climbing FlightAware ADS-B
09:06AM 41.1981 -112.5385 322° Northwest 366 421 27,600 2,667 Climbing FlightAware ADS-B (KBTF)
09:06AM 41.2289 -112.5698 322° Northwest 380 437 28,800 2,160 Climbing FlightAware ADS-B
09:07AM 41.2679 -112.6104 319° Northwest 381 438 29,400 1,269 Climbing FlightAware ADS-B
09:07AM 41.3085 -112.6651 313° West 394 453 29,900 571 Climbing FlightAware ADS-B
09:08AM 41.3459 -112.7195 312° West 404 465 30,000 86 Climbing FlightAware ADS-B (KBTF)
09:08AM 41.3958 -112.7924 312° West 411 473 30,000  Level FlightAware ADS-B (KBTF)
09:09AM 41.4260 -112.8378 310° West 407 468 30,000  Level FlightAware ADS-B
09:09AM 41.4487 -112.8727 311° West 413 475 30,000  Level FlightAware ADS-B
09:10AM 41.4917 -112.9383 311° West 415 478 30,000  Level FlightAware ADS-B
09:10AM 41.5277 -112.9900 320° Northwest 421 484 30,000 -125 Level FlightAware ADS-B
09:11AM 41.5607 -113.0183 332° Northwest 419 482 29,900 -1,080 Descending FlightAware ADS-B (KBTF)
09:11AM 41.6131 -113.0539 333° Northwest 418 481 29,100 -1,594 Descending FlightAware ADS-B
09:12AM 41.6712 -113.0930 333° Northwest 410 472 28,200 -904 Descending FlightAware ADS-B
09:12AM 41.7132 -113.1214 333° Northwest 400 460 28,000 -154 Descending FlightAware ADS-B
09:13AM 41.7999 -113.1801 333° Northwest 397 457 28,000  Level FlightAware ADS-B
09:13AM 41.8493 -113.2135 333° Northwest 400 460 28,000  Level FlightAware ADS-B (KBTF)
09:14AM 41.8997 -113.2477 333° Northwest 395 455 28,000  Level FlightAware ADS-B (KBTF)
09:15AM 41.9660 -113.2928 333° Northwest 398 458 28,000  Level FlightAware ADS-B (KBTF)
09:15AM 42.0231 -113.3287 338° Northwest 412 474 28,000  Level FlightAware ADS-B (KBTF)
09:16AM 42.0941 -113.3658 338° Northwest 412 474 28,000  Level FlightAware ADS-B (KBTF)
09:16AM 42.1057 -113.3718 338° Northwest 412 474 28,000  Level FlightAware ADS-B
09:16AM 42.1609 -113.4006 339° North 423 487 28,000  Level FlightAware ADS-B
09:17AM 42.1938 -113.4177 339° North 424 488 28,000  Level FlightAware ADS-B
09:17AM 42.2161 -113.4295 338° Northwest 418 481 28,000  Level FlightAware ADS-B
09:18AM 42.3012 -113.4740 339° North 429 494 28,000  Level FlightAware ADS-B (KBTF)
09:18AM 42.3625 -113.5062 339° North 428 493 28,000  Level FlightAware ADS-B
09:19AM 42.4242 -113.5386 339° North 428 493 28,000 -686 Level FlightAware ADS-B
09:19AM 42.4338 -113.5436 339° North 429 494 27,200 -1,800 Descending FlightAware ADS-B
09:20AM 42.5597 -113.6101 338° Northwest 417 480 25,900 -2,325 Descending FlightAware ADS-B (KBTF)
09:21AM 42.6379 -113.6513 338° Northwest 396 456 24,100 -2,320 Descending FlightAware ADS-B (KBTF)
09:21AM 42.6906 -113.6793 339° North 384 442 23,000 -2,167 Descending FlightAware ADS-B
09:22AM 42.7574 -113.7149 338° Northwest 369 425 21,500 -2,096 Descending FlightAware ADS-B (KBTF)
09:23AM 42.8237 -113.7501 339° North 365 420 20,100 -2,027 Descending FlightAware ADS-B (KBTF)
09:23AM 42.8727 -113.7763 339° North 347 399 19,000 -1,941 Descending FlightAware ADS-B (KBTF)
09:24AM 42.9253 -113.8044 339° North 331 381 17,900 -1,793 Descending FlightAware ADS-B (KBTF)
09:25AM 42.9947 -113.8406 339° North 332 382 16,400 -1,714 Descending Salt Lake Center
09:26AM 43.0719 -113.8844 337° Northwest 320 368 14,700 -1,721 Descending Salt Lake Center
09:27AM 43.1439 -113.9422 330° Northwest 294 338 12,900 -1,574 Descending Salt Lake Center
09:28AM 43.1900 -114.0214 309° West 279 321 11,500 -1,377 Descending Salt Lake Center
09:29AM 43.2311 -114.0900 309° West 268 308 10,100 -1,377 Descending Salt Lake Center
09:31AM 43.3986 -114.1893 337° Northwest  Level FlightAware Approximate
09:38AM 43.5000 -114.2833 324° Northwest  Level FlightAware Approximate
09:39AM 43.5038 -114.2956 270° West  Level Estimated
09:40AM 43.5038 -114.2956 324° Northwest  Level Estimated
09:41AM 43.5038 -114.2956 113° Southeast  Level Estimated